Time;durP1;ratioP1;P1;durP2;ratioP2;P2;SDS_P1;SDS_P2;PMS_P1;PMS_P2;Temp;Humidity;BMP_temperature;BMP_pressure;BME280_temperature;BME280_humidity;BME280_pressure;Samples;Min_cycle;Max_cycle;Signal;HPM_P1;HPM_P2
2023/06/04 00:00:27;;;;;;;5.95;0.70;;;13.00;83.00;;;;;;5031837;28;20049;-52
2023/06/04 00:02:53;;;;;;;2.10;1.23;;;12.90;83.20;;;;;;5044214;28;20049;-53
2023/06/04 00:05:18;;;;;;;8.30;1.23;;;12.90;83.50;;;;;;5051704;28;20478;-55
2023/06/04 00:07:44;;;;;;;2.53;0.88;;;12.90;83.60;;;;;;5051192;28;20044;-54
2023/06/04 00:10:10;;;;;;;4.93;0.90;;;12.90;83.80;;;;;;5051404;28;20098;-52
2023/06/04 00:12:36;;;;;;;9.07;1.42;;;12.80;84.30;;;;;;5051020;28;20148;-55
2023/06/04 00:15:02;;;;;;;1.73;0.70;;;12.80;84.50;;;;;;5039102;28;20038;-51
2023/06/04 00:17:27;;;;;;;2.03;0.80;;;12.70;85.10;;;;;;5029794;28;20088;-55
2023/06/04 00:19:53;;;;;;;3.53;0.80;;;12.70;85.80;;;;;;5031583;28;20089;-55
2023/06/04 00:22:19;;;;;;;4.85;0.95;;;12.70;86.20;;;;;;5044406;28;20091;-55
2023/06/04 00:24:44;;;;;;;3.55;1.38;;;12.70;86.50;;;;;;5032717;28;20133;-51
2023/06/04 00:27:10;;;;;;;3.92;0.80;;;12.60;86.90;;;;;;5042536;28;20033;-51
2023/06/04 00:29:36;;;;;;;4.57;1.25;;;12.60;87.20;;;;;;5048522;28;20091;-53
2023/06/04 00:32:02;;;;;;;1.75;1.00;;;12.50;87.40;;;;;;5048424;28;20117;-52
2023/06/04 00:34:28;;;;;;;;;;;12.50;88.00;;;;;;5048268;28;20029;-51
2023/06/04 00:36:53;;;;;;;2.85;0.85;;;12.50;89.10;;;;;;5049170;28;19943;-56
2023/06/04 00:39:19;;;;;;;4.85;0.95;;;12.40;89.10;;;;;;5038487;28;20038;-52
2023/06/04 00:41:45;;;;;;;3.58;0.88;;;12.30;89.40;;;;;;5031739;28;20414;-52
2023/06/04 00:44:11;;;;;;;2.45;1.13;;;12.20;89.80;;;;;;5040840;28;20077;-52
2023/06/04 00:46:37;;;;;;;3.83;1.10;;;12.20;90.20;;;;;;5050237;28;20044;-54
2023/06/04 00:49:04;;;;;;;3.00;0.80;;;12.20;90.30;;;;;;5048525;28;20033;-54
2023/06/04 00:51:31;;;;;;;2.08;1.02;;;12.10;90.10;;;;;;5046580;28;20109;-53
2023/06/04 00:53:58;;;;;;;2.60;1.33;;;11.80;90.20;;;;;;5037881;28;20116;-54
2023/06/04 00:56:24;;;;;;;2.72;1.15;;;11.60;90.40;;;;;;5050373;28;20052;-54
2023/06/04 00:58:49;;;;;;;3.00;1.37;;;11.50;91.00;;;;;;5040538;28;20095;-51
2023/06/04 01:01:31;;;;;;;1.75;0.93;;;11.30;91.60;;;;;;5040793;28;20323;-52
2023/06/04 01:03:59;;;;;;;2.00;1.13;;;11.30;92.40;;;;;;5048961;28;20033;-54
2023/06/04 01:06:33;;;;;;;6.25;1.27;;;11.30;92.70;;;;;;5045411;28;20044;-52
2023/06/04 01:09:00;;;;;;;3.88;1.33;;;11.30;93.30;;;;;;5029152;28;20060;-52
2023/06/04 01:11:36;;;;;;;5.75;1.42;;;11.30;93.70;;;;;;5030265;28;20499;-54
2023/06/04 01:14:08;;;;;;;4.38;1.80;;;11.30;94.20;;;;;;5030347;28;20045;-55
2023/06/04 01:17:04;;;;;;;7.13;1.52;;;11.30;94.50;;;;;;5030330;28;20099;-53
2023/06/04 01:20:08;;;;;;;2.17;1.38;;;11.30;95.00;;;;;;5043001;28;20049;-53
2023/06/04 01:22:47;;;;;;;5.35;1.67;;;11.30;95.00;;;;;;5050431;28;20053;-53
2023/06/04 01:25:20;;;;;;;3.40;1.60;;;11.20;94.60;;;;;;5049984;28;20048;-53
2023/06/04 01:27:52;;;;;;;3.10;1.48;;;11.10;94.80;;;;;;5049887;28;20058;-53
2023/06/04 01:30:29;;;;;;;3.17;1.40;;;11.00;95.30;;;;;;5048980;28;20037;-51
2023/06/04 01:32:56;;;;;;;4.97;1.83;;;10.90;95.70;;;;;;5050268;28;20127;-52
2023/06/04 01:35:22;;;;;;;7.40;2.05;;;11.00;96.50;;;;;;5050090;28;20547;-51
2023/06/04 01:37:49;;;;;;;4.80;1.70;;;11.00;96.90;;;;;;5049697;28;20259;-52
2023/06/04 01:40:15;;;;;;;4.40;1.48;;;11.00;96.90;;;;;;5049994;28;20549;-52
2023/06/04 01:42:41;;;;;;;1.95;1.23;;;11.00;96.90;;;;;;5050139;28;20036;-51
2023/06/04 01:45:08;;;;;;;5.50;1.98;;;11.00;97.00;;;;;;5050093;28;20162;-54
2023/06/04 01:47:34;;;;;;;4.30;1.75;;;11.00;97.10;;;;;;5049773;28;20045;-53
2023/06/04 01:50:01;;;;;;;6.55;2.47;;;11.00;97.10;;;;;;5050214;28;20043;-52
2023/06/04 01:52:26;;;;;;;;;;;11.00;97.40;;;;;;5050118;28;20041;-51
2023/06/04 01:54:52;;;;;;;8.43;2.35;;;11.00;98.00;;;;;;5046808;28;19921;-55
2023/06/04 01:57:22;;;;;;;2.42;1.10;;;11.00;97.70;;;;;;5030042;28;20048;-53
2023/06/04 01:59:48;;;;;;;3.28;1.23;;;10.90;97.50;;;;;;5031875;28;20457;-51
2023/06/04 02:02:15;;;;;;;;;;;10.90;97.30;;;;;;5041420;28;20076;-54
2023/06/04 02:04:41;;;;;;;4.07;2.42;;;10.80;97.70;;;;;;5040891;28;19921;-53
2023/06/04 02:07:10;;;;;;;8.52;1.95;;;10.80;97.90;;;;;;5053398;28;20045;-52
2023/06/04 02:09:37;;;;;;;4.05;2.30;;;10.80;99.00;;;;;;5044447;28;20084;-51
2023/06/04 02:12:02;;;;;;;;;;;10.80;99.60;;;;;;5034380;28;20072;-53
2023/06/04 02:14:28;;;;;;;8.38;2.92;;;10.70;99.90;;;;;;5033646;28;20036;-54
2023/06/04 02:16:57;;;;;;;4.20;2.70;;;10.70;99.90;;;;;;5032726;28;20522;-51
2023/06/04 02:19:25;;;;;;;4.85;2.55;;;10.70;99.90;;;;;;5033215;28;20407;-51
2023/06/04 02:21:52;;;;;;;10.65;2.95;;;10.80;99.90;;;;;;5043035;28;20406;-52
2023/06/04 02:24:17;;;;;;;7.90;2.90;;;10.70;99.90;;;;;;5053735;28;20072;-51
2023/06/04 02:26:43;;;;;;;5.67;2.17;;;10.70;99.90;;;;;;5053709;28;20079;-55
2023/06/04 02:29:08;;;;;;;4.00;2.43;;;10.70;99.90;;;;;;5052905;28;20278;-53
2023/06/04 02:31:34;;;;;;;5.30;2.80;;;10.60;99.90;;;;;;5053375;28;20290;-54
2023/06/04 02:34:00;;;;;;;6.38;2.13;;;10.50;99.90;;;;;;5052923;28;20279;-52
2023/06/04 02:36:25;;;;;;;3.67;2.47;;;10.30;99.90;;;;;;5052275;28;20055;-53
2023/06/04 02:38:51;;;;;;;3.60;2.80;;;10.20;99.90;;;;;;5052166;28;20268;-54
2023/06/04 02:41:16;;;;;;;7.90;3.87;;;10.10;99.90;;;;;;5053265;28;20062;-54
2023/06/04 02:43:42;;;;;;;8.75;3.33;;;10.10;99.90;;;;;;5053340;28;20287;-52
2023/06/04 02:46:08;;;;;;;9.88;2.45;;;10.10;99.90;;;;;;5053129;28;20040;-51
2023/06/04 02:48:33;;;;;;;7.80;3.50;;;10.20;99.90;;;;;;5052640;28;20140;-51
2023/06/04 02:50:59;;;;;;;8.55;4.03;;;10.20;99.90;;;;;;5052651;28;20271;-52
2023/06/04 02:53:25;;;;;;;14.95;3.40;;;10.20;99.90;;;;;;5051749;28;20049;-55
2023/06/04 02:55:52;;;;;;;7.75;3.38;;;10.20;99.90;;;;;;5052819;28;20045;-51
2023/06/04 02:58:18;;;;;;;13.68;3.50;;;10.20;99.90;;;;;;5044477;28;20041;-51
2023/06/04 03:00:44;;;;;;;11.68;3.55;;;10.20;99.90;;;;;;5032755;28;20136;-51
2023/06/04 03:03:10;;;;;;;11.00;4.10;;;10.30;99.90;;;;;;5033405;28;20041;-52
2023/06/04 03:05:37;;;;;;;12.98;3.88;;;10.30;99.90;;;;;;5033718;28;20512;-54
2023/06/04 03:08:03;;;;;;;;;;;10.30;99.90;;;;;;5046453;28;20164;-55
2023/06/04 03:10:30;;;;;;;9.55;4.22;;;10.40;99.90;;;;;;5038601;28;20003;-52
2023/06/04 03:12:56;;;;;;;8.10;4.20;;;10.40;99.90;;;;;;5042199;28;20047;-55
2023/06/04 03:15:22;;;;;;;9.10;4.45;;;10.40;99.90;;;;;;5049929;28;20119;-51
2023/06/04 03:17:48;;;;;;;11.57;4.53;;;10.40;99.90;;;;;;5040186;28;20091;-53
2023/06/04 03:20:14;;;;;;;;;;;10.40;99.90;;;;;;5056058;28;20048;-51
2023/06/04 03:22:39;;;;;;;14.10;4.05;;;10.50;99.90;;;;;;5049911;28;19917;-51
2023/06/04 03:25:06;;;;;;;9.90;4.35;;;10.50;99.90;;;;;;5031136;28;20084;-54
2023/06/04 03:27:32;;;;;;;9.60;4.88;;;10.50;99.90;;;;;;5032008;28;20033;-53
2023/06/04 03:29:58;;;;;;;14.60;4.85;;;10.40;99.90;;;;;;5032797;28;20049;-52
2023/06/04 03:32:24;;;;;;;7.10;3.55;;;10.40;99.90;;;;;;5069409;28;20490;-53
2023/06/04 03:34:50;;;;;;;8.35;3.65;;;10.40;99.90;;;;;;5069979;28;20459;-51
2023/06/04 03:37:17;;;;;;;9.90;4.20;;;10.50;99.90;;;;;;5050902;28;20124;-55
2023/06/04 03:39:42;;;;;;;10.20;4.32;;;10.40;99.90;;;;;;5051724;28;20501;-51
2023/06/04 03:42:08;;;;;;;10.23;3.80;;;10.40;99.90;;;;;;5051892;28;20033;-54
2023/06/04 03:44:34;;;;;;;9.20;4.85;;;10.40;99.90;;;;;;5052048;28;20099;-54
2023/06/04 03:46:59;;;;;;;7.75;4.45;;;10.40;99.90;;;;;;5051469;28;20350;-52
2023/06/04 03:49:25;;;;;;;10.15;4.45;;;10.40;99.90;;;;;;5051770;28;20090;-52
2023/06/04 03:51:51;;;;;;;10.98;4.53;;;10.40;99.90;;;;;;5052182;28;20490;-51
2023/06/04 03:54:17;;;;;;;5.72;3.70;;;10.40;99.90;;;;;;5051895;28;20048;-51
2023/06/04 03:56:45;;;;;;;10.05;4.53;;;10.40;99.90;;;;;;5051861;28;20049;-55
2023/06/04 03:59:11;;;;;;;13.32;4.95;;;10.40;99.90;;;;;;5051349;28;20074;-51
2023/06/04 04:01:37;;;;;;;10.70;5.05;;;10.40;99.90;;;;;;5051225;28;20547;-52
2023/06/04 04:04:04;;;;;;;8.88;4.32;;;10.40;99.90;;;;;;5051672;28;20056;-54
2023/06/04 04:06:30;;;;;;;8.63;4.60;;;10.40;99.90;;;;;;5051899;28;20047;-53
2023/06/04 04:08:56;;;;;;;9.25;4.28;;;10.40;99.90;;;;;;5032281;28;20116;-53
2023/06/04 04:11:21;;;;;;;15.05;4.68;;;10.40;99.90;;;;;;5031557;28;20041;-55
2023/06/04 04:13:47;;;;;;;10.27;4.30;;;10.40;99.90;;;;;;5036953;28;20037;-51
2023/06/04 04:16:13;;;;;;;11.20;4.18;;;10.40;99.90;;;;;;5043576;28;20044;-53
2023/06/04 04:18:45;;;;;;;6.72;4.40;;;10.40;99.90;;;;;;5040112;28;20041;-52
2023/06/04 04:21:10;;;;;;;8.70;4.05;;;10.50;99.90;;;;;;5049891;28;20040;-52
2023/06/04 04:23:40;;;;;;;9.48;3.80;;;10.50;99.90;;;;;;5049715;28;20086;-54
2023/06/04 04:26:06;;;;;;;12.57;5.53;;;10.50;99.90;;;;;;5041513;28;20079;-51
2023/06/04 04:28:32;;;;;;;12.25;4.78;;;10.50;99.90;;;;;;5034755;28;20029;-52
2023/06/04 04:30:59;;;;;;;10.32;4.45;;;10.60;99.90;;;;;;5044241;28;20032;-52
2023/06/04 04:33:25;;;;;;;10.75;5.05;;;10.60;99.90;;;;;;5038108;28;20033;-54
2023/06/04 04:35:52;;;;;;;10.27;4.55;;;10.70;99.90;;;;;;5042432;28;20441;-57
2023/06/04 04:38:23;;;;;;;18.08;6.57;;;10.70;99.90;;;;;;5030902;28;20079;-52
2023/06/04 04:40:52;;;;;;;13.35;5.63;;;10.80;99.90;;;;;;5044279;28;20044;-55
2023/06/04 04:43:29;;;;;;;16.88;4.57;;;10.80;99.90;;;;;;5050439;28;20422;-52
2023/06/04 04:45:54;;;;;;;18.20;6.30;;;10.90;99.90;;;;;;5051190;28;20040;-51
2023/06/04 04:48:20;;;;;;;14.95;5.18;;;11.00;99.90;;;;;;5050704;28;20498;-52
2023/06/04 04:50:45;;;;;;;14.73;4.87;;;11.00;99.90;;;;;;5050824;28;20092;-54
2023/06/04 04:53:11;;;;;;;10.07;4.67;;;11.10;99.90;;;;;;5035708;28;20272;-53
2023/06/04 04:55:37;;;;;;;11.07;6.37;;;11.20;99.90;;;;;;5030582;28;20037;-52
2023/06/04 04:58:02;;;;;;;14.80;5.03;;;11.30;99.90;;;;;;5030148;28;20287;-53
2023/06/04 05:00:29;;;;;;;17.48;6.10;;;11.40;99.90;;;;;;5030686;28;20430;-54
2023/06/04 05:02:55;;;;;;;17.50;6.30;;;11.50;99.90;;;;;;5029774;28;20041;-52
2023/06/04 05:05:21;;;;;;;19.65;7.50;;;11.60;99.90;;;;;;5030494;28;20475;-53
2023/06/04 05:07:47;;;;;;;13.00;5.45;;;11.70;99.90;;;;;;5030364;28;20044;-52
2023/06/04 05:10:12;;;;;;;16.95;6.38;;;11.80;99.90;;;;;;5030182;28;20033;-52
2023/06/04 05:12:38;;;;;;;12.85;6.40;;;11.90;99.90;;;;;;5030394;28;20359;-51
2023/06/04 05:15:04;;;;;;;14.20;6.38;;;12.00;99.90;;;;;;5030285;28;20068;-54
2023/06/04 05:17:30;;;;;;;11.38;5.82;;;12.10;99.90;;;;;;5030274;28;20107;-54
2023/06/04 05:20:02;;;;;;;15.45;6.03;;;12.20;99.90;;;;;;5030382;28;20049;-54
2023/06/04 05:22:28;;;;;;;12.30;6.05;;;12.30;99.90;;;;;;5030265;28;20418;-54
2023/06/04 05:24:54;;;;;;;;;;;12.40;99.90;;;;;;5037084;28;20409;-54
2023/06/04 05:27:20;;;;;;;14.02;6.45;;;12.50;99.90;;;;;;5034716;28;19921;-57
2023/06/04 05:29:45;;;;;;;11.55;6.40;;;12.50;99.90;;;;;;5055709;28;20108;-53
2023/06/04 05:32:11;;;;;;;12.07;6.30;;;12.60;99.90;;;;;;5049933;28;20033;-54
2023/06/04 05:34:37;;;;;;;13.90;6.22;;;12.70;99.90;;;;;;5045047;28;20100;-53
2023/06/04 05:37:04;;;;;;;19.42;5.50;;;12.80;99.90;;;;;;5038803;28;20107;-56
2023/06/04 05:39:29;;;;;;;15.68;5.82;;;12.90;99.90;;;;;;5038433;28;20448;-52
2023/06/04 05:41:55;;;;;;;11.27;5.57;;;13.00;99.90;;;;;;5034544;28;20045;-52
2023/06/04 05:44:21;;;;;;;16.33;5.73;;;13.10;99.90;;;;;;5038403;28;20871;-54
2023/06/04 05:46:46;;;;;;;14.73;5.65;;;13.20;99.90;;;;;;5030151;28;20272;-54
2023/06/04 05:49:12;;;;;;;10.57;4.40;;;13.30;99.90;;;;;;5047815;28;20037;-52
2023/06/04 05:51:38;;;;;;;10.75;4.75;;;13.40;99.90;;;;;;5050434;28;20041;-51
2023/06/04 05:54:03;;;;;;;9.60;5.18;;;13.50;99.90;;;;;;5049673;28;20494;-53
2023/06/04 05:56:29;;;;;;;10.52;4.53;;;13.60;99.90;;;;;;5050175;28;20049;-53
2023/06/04 05:58:55;;;;;;;13.57;5.00;;;13.70;99.90;;;;;;5049752;28;20036;-57
2023/06/04 06:01:21;;;;;;;8.63;4.13;;;13.80;99.90;;;;;;5032103;28;20052;-53
2023/06/04 06:03:47;;;;;;;;;;;13.90;99.90;;;;;;5029361;28;20042;-52
2023/06/04 06:06:15;;;;;;;9.25;4.10;;;14.00;99.90;;;;;;5048312;28;19923;-55
2023/06/04 06:08:41;;;;;;;8.45;4.13;;;14.10;99.90;;;;;;5042626;28;20532;-55
2023/06/04 06:11:08;;;;;;;7.68;3.90;;;14.20;99.90;;;;;;5042753;28;20112;-54
2023/06/04 06:13:33;;;;;;;7.68;3.30;;;14.30;99.90;;;;;;5038455;28;20087;-57
2023/06/04 06:15:59;;;;;;;7.80;3.78;;;14.40;99.90;;;;;;5049521;28;20130;-53
2023/06/04 06:18:24;;;;;;;5.47;3.25;;;14.50;99.90;;;;;;5049178;28;20036;-55
2023/06/04 06:20:50;;;;;;;10.70;3.58;;;14.60;99.90;;;;;;5035055;28;20082;-54
2023/06/04 06:23:16;;;;;;;7.38;2.35;;;14.70;99.90;;;;;;5049513;28;20120;-53
2023/06/04 06:25:45;;;;;;;;;;;14.70;99.90;;;;;;5046736;28;20038;-52
2023/06/04 06:28:11;;;;;;;10.35;3.13;;;14.80;99.90;;;;;;5030396;28;19917;-51
2023/06/04 06:30:37;;;;;;;9.25;3.92;;;14.90;99.90;;;;;;5031462;28;20042;-51
2023/06/04 06:33:02;;;;;;;11.25;3.45;;;15.00;99.90;;;;;;5049484;28;20044;-53
2023/06/04 06:35:28;;;;;;;13.57;2.67;;;15.10;99.90;;;;;;5048775;28;20103;-51
2023/06/04 06:37:53;;;;;;;8.98;2.38;;;15.20;99.90;;;;;;5065421;28;20067;-51
2023/06/04 06:40:19;;;;;;;9.48;2.33;;;15.30;99.90;;;;;;5053775;28;20094;-54
2023/06/04 06:42:49;;;;;;;6.45;2.53;;;15.50;99.90;;;;;;5031151;28;20041;-54
2023/06/04 06:45:15;;;;;;;6.13;3.03;;;15.60;99.90;;;;;;5030212;28;20477;-52
2023/06/04 06:47:41;;;;;;;6.47;3.15;;;15.60;99.90;;;;;;5049563;28;20076;-52
2023/06/04 06:50:07;;;;;;;7.82;3.38;;;15.70;99.90;;;;;;5043817;28;20048;-53
2023/06/04 06:52:32;;;;;;;;;;;15.80;99.90;;;;;;5046378;28;20044;-54
2023/06/04 06:54:58;;;;;;;6.80;1.33;;;15.90;99.90;;;;;;5052821;28;19917;-52
2023/06/04 06:57:24;;;;;;;4.75;1.50;;;15.90;99.90;;;;;;5032942;28;20069;-53
2023/06/04 06:59:51;;;;;;;4.75;1.60;;;16.00;99.90;;;;;;5036688;28;20640;-51
2023/06/04 07:02:17;;;;;;;6.88;1.02;;;16.00;99.90;;;;;;5046764;28;20505;-55
2023/06/04 07:04:43;;;;;;;11.40;2.00;;;16.10;99.90;;;;;;5052141;28;20044;-51
2023/06/04 07:07:08;;;;;;;45.55;4.68;;;16.20;99.90;;;;;;5032210;28;20046;-54
2023/06/04 07:09:34;;;;;;;3.60;1.02;;;16.30;99.90;;;;;;5032522;28;20042;-52
2023/06/04 07:12:00;;;;;;;11.13;2.33;;;16.40;99.90;;;;;;5032709;28;20120;-54
2023/06/04 07:14:26;;;;;;;5.97;1.02;;;16.50;99.90;;;;;;5036852;28;20379;-52
2023/06/04 07:16:51;;;;;;;5.53;0.93;;;16.60;99.90;;;;;;5041719;28;20041;-52
2023/06/04 07:19:17;;;;;;;2.47;0.82;;;16.70;99.90;;;;;;5052196;28;20053;-54
2023/06/04 07:21:42;;;;;;;2.83;0.90;;;16.70;99.90;;;;;;5051793;28;20041;-53
2023/06/04 07:24:08;;;;;;;11.77;1.88;;;16.80;99.00;;;;;;5052610;28;20080;-56
2023/06/04 07:26:34;;;;;;;3.50;1.30;;;16.90;98.90;;;;;;5052089;28;20044;-55
2023/06/04 07:29:00;;;;;;;6.85;1.02;;;16.90;98.70;;;;;;5065359;28;20420;-55
2023/06/04 07:31:25;;;;;;;6.07;0.60;;;17.10;98.70;;;;;;5059060;28;20048;-56
2023/06/04 07:33:51;;;;;;;4.80;0.98;;;17.10;98.00;;;;;;5059300;28;20052;-52
2023/06/04 07:36:16;;;;;;;4.63;1.58;;;17.20;98.30;;;;;;5056305;28;20116;-55
2023/06/04 07:38:43;;;;;;;5.20;0.63;;;17.30;98.10;;;;;;5072295;28;20059;-56
2023/06/04 07:41:09;;;;;;;4.05;0.85;;;17.40;97.70;;;;;;5072646;28;20461;-56
2023/06/04 07:43:35;;;;;;;;;;;17.50;98.00;;;;;;5072911;28;20109;-56
2023/06/04 07:46:01;;;;;;;4.15;0.55;;;17.60;97.90;;;;;;5045674;28;20390;-56
2023/06/04 07:48:30;;;;;;;3.60;0.55;;;17.70;97.50;;;;;;5042289;28;20395;-56
2023/06/04 07:51:00;;;;;;;3.80;0.85;;;17.80;96.90;;;;;;5040116;28;20136;-56
2023/06/04 07:53:26;;;;;;;19.30;1.65;;;17.80;96.70;;;;;;5040746;28;20037;-56
2023/06/04 07:55:52;;;;;;;4.93;1.00;;;17.90;96.30;;;;;;5050998;28;20041;-54
2023/06/04 07:58:18;;;;;;;;;;;17.90;96.50;;;;;;5036824;28;20072;-57
2023/06/04 08:00:43;;;;;;;5.40;0.70;;;18.10;96.80;;;;;;5032767;28;19960;-56
2023/06/04 08:03:10;;;;;;;3.35;1.00;;;18.10;96.60;;;;;;5044303;28;20502;-57
2023/06/04 08:05:35;;;;;;;6.50;1.20;;;18.20;96.40;;;;;;5058065;28;20046;-55
2023/06/04 08:08:01;;;;;;;4.60;0.95;;;18.30;96.30;;;;;;5053226;28;20043;-56
2023/06/04 08:10:27;;;;;;;2.95;1.05;;;18.40;96.10;;;;;;5043940;28;20170;-56
2023/06/04 08:12:53;;;;;;;4.57;0.77;;;18.40;95.30;;;;;;5041337;28;20029;-54
2023/06/04 08:15:18;;;;;;;4.68;1.30;;;18.40;95.90;;;;;;5051310;28;20520;-58
2023/06/04 08:17:44;;;;;;;6.97;1.58;;;18.50;95.90;;;;;;5042689;28;20113;-56
2023/06/04 08:20:10;;;;;;;3.65;0.88;;;18.60;95.90;;;;;;5047434;28;20134;-59
2023/06/04 08:22:35;;;;;;;3.90;1.20;;;18.70;95.50;;;;;;5050937;28;20041;-58
2023/06/04 08:25:01;;;;;;;8.50;1.30;;;18.80;95.50;;;;;;5051151;28;20052;-59
2023/06/04 08:27:26;;;;;;;12.82;1.90;;;18.80;95.70;;;;;;5031462;28;20088;-57
2023/06/04 08:29:52;;;;;;;11.15;1.45;;;18.90;95.40;;;;;;5030598;28;20037;-56
2023/06/04 08:32:18;;;;;;;5.57;0.98;;;18.90;95.30;;;;;;5048736;28;20068;-57
2023/06/04 08:34:43;;;;;;;11.20;1.75;;;19.00;94.90;;;;;;5050504;28;20052;-59
2023/06/04 08:37:10;;;;;;;6.05;1.02;;;19.10;95.10;;;;;;5034867;28;20419;-60
2023/06/04 08:39:36;;;;;;;4.57;1.13;;;19.20;94.70;;;;;;5030743;28;20077;-61
2023/06/04 08:42:05;;;;;;;7.57;1.30;;;19.30;94.70;;;;;;5030701;28;20069;-60
2023/06/04 08:44:30;;;;;;;4.47;0.90;;;19.40;94.30;;;;;;5051713;28;20493;-63
2023/06/04 08:47:03;;;;;;;8.75;0.93;;;19.50;93.90;;;;;;5056502;28;20047;-60
2023/06/04 08:49:36;;;;;;;4.88;0.50;;;19.60;93.10;;;;;;5032900;28;20068;-58
2023/06/04 08:52:02;;;;;;;4.25;0.70;;;19.70;93.00;;;;;;5038232;28;20126;-55
2023/06/04 08:54:29;;;;;;;5.35;0.60;;;19.80;92.80;;;;;;5041499;28;20037;-60
2023/06/04 08:56:57;;;;;;;3.65;0.55;;;19.80;92.50;;;;;;5060811;28;20036;-61
2023/06/04 08:59:23;;;;;;;4.68;0.82;;;19.80;92.30;;;;;;5068605;28;20532;-61
2023/06/04 09:01:53;;;;;;;6.20;0.80;;;19.90;92.40;;;;;;5049372;28;20072;-57
2023/06/04 09:04:18;;;;;;;8.30;0.75;;;20.00;92.50;;;;;;5050709;28;20414;-55
2023/06/04 09:06:45;;;;;;;4.85;0.60;;;20.00;92.00;;;;;;5041540;28;20029;-52
2023/06/04 09:09:14;;;;;;;3.85;0.85;;;20.10;92.40;;;;;;5030312;28;20116;-55
2023/06/04 09:11:52;;;;;;;2.70;0.68;;;20.30;91.90;;;;;;5031965;28;20117;-53
2023/06/04 09:14:18;;;;;;;2.88;0.60;;;20.40;91.00;;;;;;5048001;28;20049;-54
2023/06/04 09:16:54;;;;;;;3.35;0.50;;;20.50;91.60;;;;;;5042813;28;20045;-54
2023/06/04 09:19:21;;;;;;;3.60;0.50;;;20.60;90.70;;;;;;5030189;28;20061;-51
2023/06/04 09:21:51;;;;;;;2.40;0.50;;;20.70;90.70;;;;;;5037636;28;20033;-53
2023/06/04 09:24:17;;;;;;;6.70;0.70;;;20.70;90.10;;;;;;5049406;28;20110;-52
2023/06/04 09:26:42;;;;;;;1.88;0.40;;;20.70;89.50;;;;;;5043207;28;20037;-54
2023/06/04 09:29:08;;;;;;;2.03;0.50;;;20.70;88.10;;;;;;5029998;28;20498;-52
2023/06/04 09:31:36;;;;;;;;;;;20.70;87.80;;;;;;5031877;28;20457;-52
2023/06/04 09:34:03;;;;;;;1.25;0.60;;;20.80;87.70;;;;;;5028706;28;19917;-56
2023/06/04 09:36:36;;;;;;;1.85;0.40;;;20.90;88.00;;;;;;5033086;28;20091;-54
2023/06/04 09:39:14;;;;;;;5.78;0.40;;;21.00;87.20;;;;;;5049147;28;20052;-53
2023/06/04 09:41:40;;;;;;;5.38;0.70;;;21.10;87.80;;;;;;5046682;28;20045;-55
2023/06/04 09:44:06;;;;;;;;;;;21.20;87.90;;;;;;5030279;28;20038;-54
2023/06/04 09:46:31;;;;;;;4.95;0.70;;;21.30;87.00;;;;;;5031451;28;20003;-53
2023/06/04 09:49:04;;;;;;;;;;;21.30;86.80;;;;;;5054846;28;20103;-52
2023/06/04 09:51:31;;;;;;;4.10;0.60;;;21.50;86.00;;;;;;5067795;28;19938;-52
2023/06/04 09:53:59;;;;;;;3.13;0.30;;;21.60;85.90;;;;;;5029900;28;20442;-52
2023/06/04 09:56:26;;;;;;;4.57;0.63;;;21.50;85.00;;;;;;5035801;28;20052;-52
2023/06/04 09:59:02;;;;;;;2.38;0.60;;;21.50;84.50;;;;;;5039656;28;20440;-51
2023/06/04 10:01:29;;;;;;;2.75;0.40;;;21.50;84.40;;;;;;5067057;28;20037;-52
2023/06/04 10:03:58;;;;;;;1.70;0.40;;;21.40;82.40;;;;;;5047786;28;20510;-53
2023/06/04 10:06:26;;;;;;;3.35;0.38;;;21.30;81.90;;;;;;5042266;28;20453;-52
2023/06/04 10:08:52;;;;;;;6.80;0.70;;;21.20;81.90;;;;;;5031969;28;20048;-50
2023/06/04 10:11:26;;;;;;;9.25;0.88;;;21.20;82.20;;;;;;5041082;28;20033;-50
2023/06/04 10:13:54;;;;;;;5.10;0.40;;;21.20;81.60;;;;;;5048284;28;20262;-50
2023/06/04 10:16:20;;;;;;;3.58;0.43;;;21.20;82.00;;;;;;5049651;28;20041;-51
2023/06/04 10:18:46;;;;;;;4.93;0.70;;;21.20;82.70;;;;;;5045853;28;20048;-51
2023/06/04 10:21:14;;;;;;;3.20;0.57;;;21.20;82.40;;;;;;5052250;28;20045;-51
2023/06/04 10:23:44;;;;;;;23.02;1.38;;;21.20;81.30;;;;;;5035965;28;20049;-50
2023/06/04 10:26:13;;;;;;;6.72;0.98;;;21.20;81.40;;;;;;5035253;28;20041;-52
2023/06/04 10:28:41;;;;;;;4.75;0.55;;;21.20;81.80;;;;;;5051846;28;20093;-53
2023/06/04 10:31:09;;;;;;;3.72;0.47;;;21.20;82.40;;;;;;5042235;28;20056;-54
2023/06/04 10:33:35;;;;;;;3.05;0.80;;;21.20;81.00;;;;;;5042208;28;20051;-51
2023/06/04 10:36:17;;;;;;;11.02;1.15;;;21.20;82.20;;;;;;5033710;28;20164;-50
2023/06/04 10:38:47;;;;;;;5.35;0.47;;;21.30;81.60;;;;;;5042289;28;20079;-51
2023/06/04 10:41:17;;;;;;;4.07;0.50;;;21.30;82.20;;;;;;5052543;28;20037;-51
2023/06/04 10:43:45;;;;;;;2.97;0.50;;;21.40;81.70;;;;;;5043453;28;20117;-51
2023/06/04 10:46:15;;;;;;;4.03;0.60;;;21.40;80.30;;;;;;5033044;28;20040;-51
2023/06/04 10:48:51;;;;;;;1.30;0.55;;;21.40;79.20;;;;;;5041068;28;20045;-51
2023/06/04 10:51:32;;;;;;;3.80;0.67;;;21.40;79.10;;;;;;5053480;28;20124;-51
2023/06/04 10:54:00;;;;;;;4.32;0.40;;;21.40;78.90;;;;;;5056244;28;20045;-50
2023/06/04 10:56:32;;;;;;;21.90;2.00;;;21.30;78.30;;;;;;5051350;28;20044;-50
2023/06/04 10:58:57;;;;;;;7.95;0.40;;;21.40;79.50;;;;;;5045236;28;20037;-50
2023/06/04 11:01:24;;;;;;;;;;;21.40;79.30;;;;;;5048616;28;20041;-50
2023/06/04 11:03:50;;;;;;;2.08;0.57;;;21.40;78.60;;;;;;5034009;28;20050;-50
2023/06/04 11:06:16;;;;;;;2.83;0.70;;;21.50;78.20;;;;;;5065158;28;20037;-51
2023/06/04 11:08:42;;;;;;;;;;;21.50;79.30;;;;;;5068398;28;20025;-52
2023/06/04 11:11:15;;;;;;;1.38;0.50;;;21.50;79.40;;;;;;5073027;28;19916;-50
2023/06/04 11:13:41;;;;;;;1.52;0.93;;;21.60;78.20;;;;;;5066803;28;20037;-51
2023/06/04 11:16:21;;;;;;;3.25;0.77;;;21.60;78.20;;;;;;5052822;28;20076;-56
2023/06/04 11:18:57;;;;;;;4.38;0.70;;;21.50;77.60;;;;;;5050661;28;20382;-51
2023/06/04 11:21:23;;;;;;;2.97;0.50;;;21.60;77.60;;;;;;5059219;28;20102;-50
2023/06/04 11:23:49;;;;;;;2.35;0.50;;;21.60;77.10;;;;;;5066441;28;20037;-51
2023/06/04 11:26:15;;;;;;;;;;;21.60;76.60;;;;;;5052805;28;20037;-51
2023/06/04 11:28:42;;;;;;;5.10;0.60;;;21.60;75.70;;;;;;5050873;28;19921;-51
2023/06/04 11:31:08;;;;;;;2.55;0.50;;;21.60;76.90;;;;;;5051712;28;20033;-52
2023/06/04 11:33:43;;;;;;;;;;;21.70;77.70;;;;;;5048896;28;20577;-52
2023/06/04 11:36:10;;;;;;;5.40;0.70;;;21.70;76.60;;;;;;5032281;28;20293;-53
2023/06/04 11:38:35;;;;;;;2.88;0.50;;;21.80;77.00;;;;;;5033327;28;20052;-52
2023/06/04 11:41:01;;;;;;;;;;;21.80;76.50;;;;;;5032620;28;20041;-50
2023/06/04 11:43:28;;;;;;;1.67;0.45;;;21.90;76.00;;;;;;5032186;28;19924;-52
2023/06/04 11:45:54;;;;;;;4.45;0.68;;;21.90;75.80;;;;;;5031995;28;20041;-52
2023/06/04 11:48:20;;;;;;;18.70;6.13;;;21.90;76.10;;;;;;5031405;28;20042;-52
2023/06/04 11:50:46;;;;;;;;;;;21.90;76.30;;;;;;5033731;28;20034;-52
2023/06/04 11:53:12;;;;;;;2.22;0.50;;;22.00;77.70;;;;;;5032038;28;19917;-54
2023/06/04 11:55:39;;;;;;;1.85;0.73;;;22.00;76.50;;;;;;5047721;28;20037;-56
2023/06/04 11:58:05;;;;;;;5.57;0.80;;;22.00;77.30;;;;;;5059658;28;20040;-55
2023/06/04 12:00:31;;;;;;;;;;;22.00;77.90;;;;;;5041057;28;20472;-55
2023/06/04 12:02:57;;;;;;;3.25;0.57;;;22.10;77.30;;;;;;5031424;28;19917;-55
2023/06/04 12:05:29;;;;;;;3.20;0.70;;;22.20;78.00;;;;;;5041470;28;20131;-53
2023/06/04 12:08:05;;;;;;;6.72;1.13;;;22.30;76.60;;;;;;5036560;28;20053;-52
2023/06/04 12:10:38;;;;;;;4.70;1.23;;;22.30;77.20;;;;;;5031874;28;20119;-51
2023/06/04 12:13:03;;;;;;;13.98;1.52;;;22.30;76.60;;;;;;5047815;28;20048;-52
2023/06/04 12:15:29;;;;;;;;;;;22.40;76.60;;;;;;5040303;28;20391;-51
2023/06/04 12:17:54;;;;;;;9.88;1.17;;;22.50;75.90;;;;;;5050454;28;20346;-51
2023/06/04 12:20:41;;;;;;;4.57;0.50;;;22.40;76.30;;;;;;5040263;28;20112;-52
2023/06/04 12:23:07;;;;;;;;;;;22.50;74.30;;;;;;5030758;28;20046;-51
2023/06/04 12:25:35;;;;;;;8.57;0.70;;;22.30;74.60;;;;;;5054424;28;20011;-51
2023/06/04 12:28:01;;;;;;;3.88;0.47;;;22.30;75.50;;;;;;5070709;28;20409;-51
2023/06/04 12:30:38;;;;;;;4.57;0.60;;;22.20;75.80;;;;;;5051348;28;20494;-52
2023/06/04 12:33:03;;;;;;;;;;;22.30;76.30;;;;;;5052790;28;20154;-52
2023/06/04 12:35:29;;;;;;;2.17;0.50;;;22.30;77.90;;;;;;5059510;28;19920;-53
2023/06/04 12:37:54;;;;;;;8.25;0.70;;;22.40;75.20;;;;;;5049908;28;20033;-51
2023/06/04 12:40:20;;;;;;;1.80;0.43;;;22.40;74.90;;;;;;5041496;28;20107;-51
2023/06/04 12:42:45;;;;;;;2.67;0.52;;;22.50;74.80;;;;;;5050627;28;20132;-54
2023/06/04 12:45:13;;;;;;;1.05;0.40;;;22.50;75.30;;;;;;5050316;28;20494;-53
2023/06/04 12:47:41;;;;;;;3.55;0.60;;;22.50;74.80;;;;;;5049689;28;20044;-52
2023/06/04 12:50:07;;;;;;;2.15;0.63;;;22.60;75.80;;;;;;5047038;28;20319;-53